Ambler Airport Ambler US
ICAO: PAFM
IATA:
Category: Medium
Scheduled Services:

Elevation: 334 ft
TransAlt. 18000 ft.

Airport Communications:
AWOS 3:132.1
ANCHORAGE CNTR:119.2
CTAF:122.7
KOTEZBUE RDO:122
TWEB:40.3

PAFM Zoom In..

Runways:

(A) RW 09 length 2400 ft width 60 ft
---- / hdg 91

(B) RW 18 length 3000 ft width 60 ft
---- / hdg 181

(C) RW 27 length 2400 ft width 60 ft
---- / hdg 271

(D) RW 36 length 3000 ft width 60 ft
---- / hdg 1

Location; PAFM
Day. 23 / Time. 08.56 Zulu
* Altimeter: 30.12
* Temperature: 17° c. 62.6°f.
* Wind from: 010° Speed 04 kn.
Dewpoint: 16° c.
Visibility: 10 Statute Miles.
Clouds: Few 11000 ft.

PAFM 230856Z AUTO 01004KT 10SM FEW110 17/16 A3012 RMK AO2 SLP209 T01720156 51002


Wind From 010°
Speed 04 kn.

 
 
jpsmedia.com for Web Design worldairports.se 2018   terms of use